createdAt,value
2018-03-29T01:37:48.066Z,96.22
2018-03-29T01:38:47.997Z,95.17
2018-03-29T01:39:47.998Z,97.92
2018-03-29T01:40:48.002Z,96.41
2018-03-29T08:36:54.096Z,76.65
2018-03-29T08:37:26.832Z,77.28
2018-03-29T08:38:26.846Z,76.71
2018-03-29T08:39:26.949Z,77.18
2018-03-29T08:40:27.047Z,78.32
2018-03-29T08:41:26.834Z,77.75
2018-03-29T08:42:26.841Z,78.51
2018-03-29T08:43:26.854Z,78.89
2018-03-29T08:45:02.105Z,77.84
2018-03-29T08:45:27.031Z,77.84
2018-03-29T08:46:26.852Z,78.83
2018-03-29T08:47:26.833Z,78.55
2018-03-29T08:48:26.836Z,79.65
2018-03-29T08:54:03.344Z,80.45
2018-03-29T08:55:02.722Z,80.03
2018-03-29T08:56:02.853Z,79.74
2018-03-29T08:57:02.714Z,81.45
2018-03-29T08:58:02.705Z,80.88
2018-03-29T09:09:51.580Z,80.03
2018-03-29T09:10:51.568Z,81.02
2018-03-29T09:11:51.589Z,79.97
2018-03-29T09:12:51.611Z,79.69
2018-03-29T09:23:15.459Z,77.31
2018-03-29T09:23:52.667Z,78.27
2018-03-29T09:24:52.708Z,77.03
2018-03-29T09:25:52.683Z,78.83
2018-03-29T09:26:52.673Z,78.69
2018-03-29T09:27:52.669Z,77.45
2018-03-29T09:41:51.509Z,79.74
2018-03-29T10:21:19.758Z,68.15
2018-03-29T10:22:19.714Z,68.21
2018-03-29T10:23:19.693Z,70.05
2018-03-29T10:25:53.539Z,68.90
2018-03-29T10:26:51.440Z,68.01
2018-03-29T10:27:51.467Z,68.49
2018-03-29T10:28:51.438Z,69.21
